Time;durP1;ratioP1;P1;durP2;ratioP2;P2;SDS_P1;SDS_P2;PMS_P1;PMS_P2;Temp;Humidity;BMP_temperature;BMP_pressure;BME280_temperature;BME280_humidity;BME280_pressure;Samples;Min_cycle;Max_cycle;Signal;HPM_P1;HPM_P2
2021/11/04 00:00:31;;;;;;;0.40;0.40;;;;;;;3.06;100.00;91499.81;2058086;28;20031;-89
2021/11/04 00:01:32;;;;;;;0.57;0.50;;;;;;;3.00;100.00;91499.53;2050923;28;20019;-88
2021/11/04 00:02:33;;;;;;;0.30;0.30;;;;;;;3.02;100.00;91494.59;2061912;28;20498;-88
2021/11/04 00:03:34;;;;;;;1.75;0.50;;;;;;;2.96;100.00;91498.88;2072599;28;20736;-88
2021/11/04 00:04:35;;;;;;;5.20;0.50;;;;;;;3.00;100.00;91497.66;2074093;28;20036;-89
2021/11/04 00:05:36;;;;;;;0.40;0.40;;;;;;;2.96;100.00;91499.59;2066081;28;20022;-89
2021/11/04 00:06:37;;;;;;;0.40;0.40;;;;;;;2.92;100.00;91501.56;2057919;28;20126;-88
2021/11/04 00:07:38;;;;;;;0.50;0.40;;;;;;;2.90;100.00;91503.88;2048258;28;20104;-88
2021/11/04 00:08:39;;;;;;;1.60;0.40;;;;;;;2.82;100.00;91510.44;2049129;28;20031;-88
2021/11/04 00:09:41;;;;;;;1.02;0.65;;;;;;;2.80;100.00;91499.53;2042719;29;20572;-90
2021/11/04 00:10:42;;;;;;;0.30;0.30;;;;;;;2.84;100.00;91510.03;2057328;28;20026;-90
2021/11/04 00:11:43;;;;;;;0.30;0.30;;;;;;;3.08;100.00;91497.50;2057983;28;20109;-88
2021/11/04 00:12:47;;;;;;;0.32;0.32;;;;;;;3.06;100.00;91497.16;2058214;28;20038;-90
2021/11/04 00:13:48;;;;;;;0.43;0.30;;;;;;;2.96;100.00;91489.06;2050749;28;20502;-88
2021/11/04 00:14:49;;;;;;;0.25;0.25;;;;;;;3.03;100.00;91480.25;2057879;28;20023;-89
2021/11/04 00:15:50;;;;;;;0.20;0.20;;;;;;;2.87;100.00;91480.94;2049927;28;20129;-91
2021/11/04 00:16:51;;;;;;;0.20;0.20;;;;;;;2.87;100.00;91483.59;2050074;28;20495;-89
2021/11/04 00:17:53;;;;;;;0.30;0.30;;;;;;;2.90;100.00;91479.41;2042119;29;20019;-89
2021/11/04 00:18:54;;;;;;;0.50;0.17;;;;;;;2.80;100.00;91483.72;2057980;28;20117;-89
2021/11/04 00:19:55;;;;;;;1.50;0.30;;;;;;;2.93;100.00;91478.56;2042051;28;20106;-88
2021/11/04 00:20:56;;;;;;;0.28;0.28;;;;;;;2.99;100.00;91469.78;2042011;28;20019;-89
2021/11/04 00:21:57;;;;;;;1.02;0.20;;;;;;;2.91;100.00;91475.59;2041808;29;20564;-89
2021/11/04 00:22:58;;;;;;;0.32;0.32;;;;;;;2.89;100.00;91478.63;2049843;28;20531;-89
2021/11/04 00:23:59;;;;;;;0.20;0.20;;;;;;;2.87;100.00;91474.94;2049898;28;20027;-90
2021/11/04 00:25:00;;;;;;;0.20;0.20;;;;;;;2.87;100.00;91480.94;2057952;28;20054;-88
2021/11/04 00:26:02;;;;;;;0.20;0.20;;;;;;;2.93;100.00;91481.19;2057709;28;20026;-90
2021/11/04 00:27:03;;;;;;;0.20;0.20;;;;;;;3.00;100.00;91484.44;2050298;28;20424;-89
2021/11/04 00:28:04;;;;;;;0.20;0.20;;;;;;;3.08;100.00;91487.69;2057874;28;20030;-90
2021/11/04 00:29:05;;;;;;;0.30;0.30;;;;;;;2.96;100.00;91498.88;2057868;28;20046;-88
2021/11/04 00:30:09;;;;;;;0.20;0.20;;;;;;;2.76;100.00;91507.50;2049771;28;20019;-89
2021/11/04 00:31:12;;;;;;;0.10;0.10;;;;;;;2.68;100.00;91516.72;2050106;28;20050;-89
2021/11/04 00:32:13;;;;;;;0.13;0.13;;;;;;;2.74;100.00;91525.66;2050362;28;20030;-90
2021/11/04 00:33:14;;;;;;;0.57;0.30;;;;;;;2.74;100.00;91523.00;2057926;28;20469;-90
2021/11/04 00:34:15;;;;;;;0.20;0.20;;;;;;;2.77;100.00;91532.03;2058043;28;20443;-88
2021/11/04 00:35:16;;;;;;;0.20;0.20;;;;;;;2.87;100.00;91530.34;2057739;28;20023;-88
2021/11/04 00:36:18;;;;;;;0.50;0.50;;;;;;;2.78;100.00;91528.97;2057911;28;20066;-88
2021/11/04 00:37:19;;;;;;;0.10;0.10;;;;;;;2.58;100.00;91532.72;2049904;28;20026;-90
2021/11/04 00:38:20;;;;;;;0.10;0.10;;;;;;;2.61;100.00;91534.56;2049435;29;20452;-89
2021/11/04 00:39:22;;;;;;;0.20;0.20;;;;;;;2.68;100.00;91537.09;2049460;28;20027;-90
2021/11/04 00:40:23;;;;;;;0.10;0.10;;;;;;;2.68;100.00;91535.19;2049826;28;20027;-89
2021/11/04 00:41:24;;;;;;;0.15;0.15;;;;;;;2.47;100.00;91551.38;2042018;28;20028;-89
2021/11/04 00:42:25;;;;;;;0.55;0.20;;;;;;;2.33;100.00;91536.56;2057892;28;20030;-89
2021/11/04 00:43:26;;;;;;;0.20;0.20;;;;;;;2.38;100.00;91548.53;2058384;28;20022;-90
2021/11/04 00:44:27;;;;;;;0.70;0.20;;;;;;;2.56;100.00;91540.31;2054896;28;20444;-89
2021/11/04 00:45:28;;;;;;;0.10;0.10;;;;;;;2.45;100.00;91543.88;2065713;28;20491;-88
2021/11/04 00:46:32;;;;;;;0.20;0.20;;;;;;;2.45;100.00;91541.22;2065612;28;20573;-88
2021/11/04 00:47:35;;;;;;;0.25;0.10;;;;;;;2.39;100.00;91536.84;2050095;28;20034;-90
2021/11/04 00:48:36;;;;;;;0.20;0.20;;;;;;;2.32;100.00;91529.03;2042097;28;20063;-89
2021/11/04 00:49:37;;;;;;;0.40;0.22;;;;;;;2.36;100.00;91535.72;2041852;28;20035;-90
2021/11/04 00:50:38;;;;;;;0.20;0.20;;;;;;;2.50;100.00;91522.31;2049589;28;20522;-90
2021/11/04 00:51:39;;;;;;;0.10;0.10;;;;;;;2.21;100.00;91532.59;2049504;29;20023;-90
2021/11/04 00:52:40;;;;;;;0.20;0.20;;;;;;;2.35;100.00;91538.78;2033858;29;20649;-90
2021/11/04 00:53:41;;;;;;;0.20;0.20;;;;;;;2.31;100.00;91535.47;2041976;28;20110;-89
2021/11/04 00:54:42;;;;;;;0.20;0.20;;;;;;;2.14;100.00;91530.06;2049718;28;20031;-89
2021/11/04 00:55:43;;;;;;;0.20;0.20;;;;;;;2.19;100.00;91534.13;2049619;29;20034;-89
2021/11/04 00:56:44;;;;;;;0.35;0.25;;;;;;;2.10;100.00;91531.28;2034022;29;20051;-88
2021/11/04 00:57:48;;;;;;;0.20;0.20;;;;;;;2.05;100.00;91531.72;2041820;28;20437;-90
2021/11/04 00:58:49;;;;;;;0.20;0.20;;;;;;;2.17;100.00;91534.53;2057645;28;20061;-88
2021/11/04 00:59:50;;;;;;;0.30;0.30;;;;;;;2.27;100.00;91530.97;2041556;29;20034;-87
2021/11/04 01:00:51;;;;;;;0.30;0.30;;;;;;;2.28;100.00;91526.44;2049545;28;20420;-90
2021/11/04 01:01:52;;;;;;;0.30;0.30;;;;;;;2.27;100.00;91517.81;2049659;29;20023;-89
2021/11/04 01:02:54;;;;;;;0.28;0.28;;;;;;;2.10;100.00;91518.84;2043205;28;20034;-89
2021/11/04 01:03:55;;;;;;;0.20;0.20;;;;;;;2.16;100.00;91521.78;2049752;28;20023;-90
2021/11/04 01:04:56;;;;;;;0.35;0.35;;;;;;;2.36;100.00;91524.44;2049574;29;20106;-90
2021/11/04 01:05:57;;;;;;;0.55;0.38;;;;;;;2.27;100.00;91517.06;2049531;29;20062;-88
2021/11/04 01:06:58;;;;;;;0.25;0.25;;;;;;;2.27;100.00;91525.72;2057432;28;20026;-90
2021/11/04 01:07:59;;;;;;;0.20;0.20;;;;;;;2.22;100.00;91534.09;2065637;28;20111;-89
2021/11/04 01:09:02;;;;;;;0.30;0.30;;;;;;;2.12;100.00;91521.84;2065836;28;20030;-90
2021/11/04 01:10:05;;;;;;;1.85;0.30;;;;;;;2.03;100.00;91532.16;2057725;28;20023;-89
2021/11/04 01:11:07;;;;;;;2.28;0.30;;;;;;;1.92;100.00;91532.28;2058058;28;20388;-88
2021/11/04 01:12:08;;;;;;;0.20;0.20;;;;;;;2.04;100.00;91535.53;2065687;28;20030;-88
2021/11/04 01:13:09;;;;;;;0.30;0.30;;;;;;;1.93;100.00;91533.03;2065896;28;20073;-88
2021/11/04 01:14:10;;;;;;;0.30;0.30;;;;;;;1.89;100.00;91538.38;2057276;28;20027;-88
2021/11/04 01:15:11;;;;;;;0.30;0.30;;;;;;;1.89;100.00;91545.50;2049464;28;20023;-90
2021/11/04 01:16:12;;;;;;;0.22;0.22;;;;;;;1.93;100.00;91535.66;2049523;28;20142;-89
2021/11/04 01:17:13;;;;;;;0.30;0.30;;;;;;;1.93;100.00;91541.72;2057671;28;20134;-90
2021/11/04 01:18:14;;;;;;;0.20;0.20;;;;;;;1.88;100.00;91536.88;2065521;28;20026;-87
2021/11/04 01:19:15;;;;;;;0.30;0.30;;;;;;;1.88;100.00;91550.03;2065784;28;20026;-87
2021/11/04 01:20:17;;;;;;;0.30;0.30;;;;;;;1.85;100.00;91539.56;2057353;28;20025;-89
2021/11/04 01:21:18;;;;;;;0.32;0.32;;;;;;;1.95;100.00;91542.03;2073255;28;20026;-89
2021/11/04 01:22:20;;;;;;;0.30;0.30;;;;;;;1.74;100.00;91547.63;2065510;28;20101;-88
2021/11/04 01:23:21;;;;;;;0.40;0.40;;;;;;;1.77;100.00;91544.94;2065498;28;20034;-89
2021/11/04 01:24:22;;;;;;;0.30;0.30;;;;;;;1.80;100.00;91540.00;2049525;28;20023;-90
2021/11/04 01:25:23;;;;;;;0.65;0.65;;;;;;;1.80;100.00;91537.38;2057330;28;20029;-88
2021/11/04 01:26:24;;;;;;;0.30;0.30;;;;;;;1.94;100.00;91531.91;2049374;28;20066;-88
2021/11/04 01:27:25;;;;;;;0.40;0.40;;;;;;;1.94;100.00;91531.91;2057274;28;20030;-88
2021/11/04 01:28:26;;;;;;;0.40;0.40;;;;;;;2.12;100.00;91529.00;2065482;28;20382;-90
2021/11/04 01:29:27;;;;;;;0.45;0.32;;;;;;;1.97;100.00;91525.81;2065436;28;20435;-91
2021/11/04 01:30:28;;;;;;;1.00;0.40;;;;;;;1.96;100.00;91530.34;2049378;28;20031;-90
2021/11/04 01:31:29;;;;;;;1.67;1.58;;;;;;;1.97;100.00;91520.56;2049388;28;20120;-88
2021/11/04 01:32:30;;;;;;;2.03;1.80;;;;;;;1.97;100.00;91523.94;2057288;28;20027;-88
2021/11/04 01:33:31;;;;;;;1.40;1.30;;;;;;;1.98;100.00;91522.06;2057276;28;20026;-89
2021/11/04 01:34:32;;;;;;;1.58;1.10;;;;;;;1.94;100.00;91524.75;2057304;28;20475;-88
2021/11/04 01:35:33;;;;;;;1.45;0.40;;;;;;;2.12;100.00;91521.09;2057438;28;20059;-89
2021/11/04 01:36:34;;;;;;;0.85;0.40;;;;;;;2.14;100.00;91519.53;2049475;28;20795;-90
2021/11/04 01:37:35;;;;;;;1.17;0.30;;;;;;;2.00;100.00;91517.13;2049291;28;20039;-89
2021/11/04 01:38:36;;;;;;;0.30;0.30;;;;;;;1.92;100.00;91511.22;2049333;28;20027;-89
2021/11/04 01:39:37;;;;;;;0.30;0.30;;;;;;;2.04;100.00;91504.63;2049383;28;20023;-88
2021/11/04 01:40:39;;;;;;;0.30;0.30;;;;;;;1.97;100.00;91510.00;2060035;28;20391;-89
2021/11/04 01:41:40;;;;;;;2.50;0.30;;;;;;;1.89;100.00;91506.75;2057606;28;20054;-89
2021/11/04 01:42:41;;;;;;;0.30;0.30;;;;;;;1.92;100.00;91505.19;2057037;28;20085;-90
2021/11/04 01:43:44;;;;;;;1.75;0.47;;;;;;;1.95;100.00;91499.88;2057122;28;20031;-90
2021/11/04 01:44:45;;;;;;;0.30;0.30;;;;;;;2.10;100.00;91500.38;2053136;28;20101;-89
2021/11/04 01:45:50;;;;;;;0.30;0.30;;;;;;;2.05;100.00;91500.09;2057395;28;20027;-88
2021/11/04 01:46:51;;;;;;;0.30;0.30;;;;;;;1.99;100.00;91497.19;2058249;28;20033;-90
2021/11/04 01:47:53;;;;;;;0.32;0.32;;;;;;;1.93;100.00;91491.66;2065299;28;20027;-90
2021/11/04 01:48:54;;;;;;;1.23;0.38;;;;;;;1.89;100.00;91488.31;2057260;28;20521;-90
2021/11/04 01:49:55;;;;;;;0.40;0.40;;;;;;;1.89;100.00;91487.56;2057178;28;20368;-89
2021/11/04 01:50:56;;;;;;;1.23;0.95;;;;;;;1.89;100.00;91493.59;2056799;28;20027;-89
2021/11/04 01:51:58;;;;;;;0.57;0.57;;;;;;;1.93;100.00;91490.88;2049170;28;20023;-88
2021/11/04 01:52:59;;;;;;;0.68;0.68;;;;;;;1.92;100.00;91484.88;2057417;28;20092;-89
2021/11/04 01:54:00;;;;;;;0.70;0.70;;;;;;;1.97;100.00;91491.56;2065245;28;20041;-88
2021/11/04 01:55:01;;;;;;;0.65;0.65;;;;;;;2.06;100.00;91491.78;2057290;28;20069;-90
2021/11/04 01:56:02;;;;;;;8.80;5.03;;;;;;;2.01;100.00;91493.00;2057217;28;20025;-88
2021/11/04 01:57:04;;;;;;;2.75;2.08;;;;;;;1.98;100.00;91496.47;2073052;28;20028;-88
2021/11/04 01:58:04;;;;;;;2.45;1.90;;;;;;;2.05;100.00;91500.09;2057111;28;20705;-88
2021/11/04 01:59:06;;;;;;;1.05;0.95;;;;;;;1.91;100.00;91501.81;2065075;28;20061;-91
2021/11/04 02:00:07;;;;;;;1.00;0.60;;;;;;;2.01;100.00;91503.53;2056919;28;20113;-89
2021/11/04 02:01:09;;;;;;;0.40;0.40;;;;;;;1.99;100.00;91508.47;2049551;28;20035;-88
2021/11/04 02:02:16;;;;;;;0.40;0.40;;;;;;;1.98;100.00;91504.34;2064936;28;20030;-90
2021/11/04 02:03:36;;;;;;;0.40;0.40;;;;;;;2.03;100.00;91508.44;2064706;28;20103;-87
2021/11/04 02:05:02;;;;;;;0.50;0.50;;;;;;;2.08;100.00;91507.97;2053038;28;20035;-90
2021/11/04 02:06:14;;;;;;;0.40;0.40;;;;;;;2.08;100.00;91517.75;2062034;28;20060;-91
2021/11/04 02:07:43;;;;;;;0.40;0.40;;;;;;;2.07;100.00;91513.66;2072682;28;20120;-88
2021/11/04 02:09:02;;;;;;;0.40;0.40;;;;;;;2.01;100.00;91508.81;2068804;28;20486;-89
2021/11/04 02:10:13;;;;;;;0.50;0.50;;;;;;;2.04;100.00;91512.53;2064806;28;20030;-88
2021/11/04 02:11:15;;;;;;;;;;;;;;;2.08;100.00;91520.41;2051569;28;20549;-88
2021/11/04 02:12:22;;;;;;;0.47;0.47;;;;;;;2.06;100.00;91518.16;2056876;28;19925;-89
2021/11/04 02:13:23;;;;;;;0.50;0.50;;;;;;;1.99;100.00;91524.28;2062201;28;20034;-88
2021/11/04 02:14:29;;;;;;;1.00;0.63;;;;;;;2.09;100.00;91519.25;2048337;28;20078;-89
2021/11/04 02:15:35;;;;;;;0.50;0.50;;;;;;;2.06;100.00;91518.16;2057844;28;20027;-89
2021/11/04 02:16:36;;;;;;;0.40;0.40;;;;;;;2.08;100.00;91520.41;2072796;28;20507;-89
2021/11/04 02:17:42;;;;;;;0.93;0.50;;;;;;;2.06;100.00;91523.41;2071987;28;20499;-89
2021/11/04 02:18:45;;;;;;;0.60;0.60;;;;;;;2.10;100.00;91518.84;2056701;28;20035;-90
2021/11/04 02:20:00;;;;;;;1.33;0.70;;;;;;;2.01;100.00;91524.63;2049108;28;20031;-90
2021/11/04 02:21:15;;;;;;;0.70;0.70;;;;;;;2.07;100.00;91524.19;2054088;28;20082;-89
2021/11/04 02:22:21;;;;;;;1.65;0.75;;;;;;;2.06;100.00;91527.94;2066775;28;20031;-90
2021/11/04 02:23:49;;;;;;;1.02;0.70;;;;;;;2.01;100.00;91524.63;2073037;28;20094;-91
2021/11/04 02:25:18;;;;;;;0.70;0.70;;;;;;;2.04;100.00;91535.53;2060524;28;20053;-90
2021/11/04 02:26:23;;;;;;;0.65;0.65;;;;;;;2.10;100.00;91534.66;2068751;28;20026;-90
2021/11/04 02:27:24;;;;;;;0.63;0.63;;;;;;;2.11;100.00;91538.03;2064915;28;20030;-90
2021/11/04 02:28:26;;;;;;;2.05;0.80;;;;;;;2.07;100.00;91540.00;2049365;28;20433;-88
2021/11/04 02:29:27;;;;;;;0.70;0.70;;;;;;;2.05;100.00;91532.47;2049271;28;20112;-88
2021/11/04 02:30:29;;;;;;;0.63;0.63;;;;;;;1.99;100.00;91532.19;2056841;28;20027;-91
2021/11/04 02:31:32;;;;;;;0.90;0.90;;;;;;;1.99;100.00;91540.09;2057218;28;20026;-90
2021/11/04 02:32:33;;;;;;;0.75;0.75;;;;;;;2.05;100.00;91535.09;2049214;28;20023;-88
2021/11/04 02:33:35;;;;;;;0.70;0.70;;;;;;;1.98;100.00;91545.78;2049293;28;20023;-89
2021/11/04 02:34:40;;;;;;;0.70;0.70;;;;;;;2.07;100.00;91543.38;2049316;28;20031;-90
2021/11/04 02:35:48;;;;;;;0.75;0.75;;;;;;;2.03;100.00;91545.31;2050074;28;20030;-87
2021/11/04 02:36:49;;;;;;;1.00;1.00;;;;;;;2.08;100.00;91541.47;2050866;28;20027;-88
2021/11/04 02:37:52;;;;;;;1.00;1.00;;;;;;;2.08;100.00;91544.13;2049171;28;20033;-88
2021/11/04 02:38:54;;;;;;;1.00;1.00;;;;;;;2.04;100.00;91543.44;2049261;28;20027;-88
2021/11/04 02:39:56;;;;;;;1.25;1.17;;;;;;;2.04;100.00;91549.44;2049346;28;20023;-90
2021/11/04 02:41:00;;;;;;;1.65;1.05;;;;;;;1.99;100.00;91544.63;2049306;28;20023;-89
2021/11/04 02:42:02;;;;;;;1.33;1.00;;;;;;;2.00;100.00;91546.09;2049684;28;20032;-87
2021/11/04 02:43:03;;;;;;;1.00;1.00;;;;;;;1.96;100.00;91548.78;2051690;28;20049;-89
2021/11/04 02:44:10;;;;;;;1.10;1.10;;;;;;;2.02;100.00;91549.09;2064946;28;20030;-88
2021/11/04 02:45:13;;;;;;;1.25;1.23;;;;;;;2.07;100.00;91545.25;2064999;28;20503;-90
2021/11/04 02:46:15;;;;;;;1.00;1.00;;;;;;;2.13;100.00;91548.94;2049326;28;20042;-90
2021/11/04 02:47:16;;;;;;;1.00;1.00;;;;;;;2.11;100.00;91544.06;2056972;28;20029;-88
2021/11/04 02:48:17;;;;;;;1.00;1.00;;;;;;;2.01;100.00;91542.31;2064930;28;20118;-89
2021/11/04 02:49:18;;;;;;;0.88;0.88;;;;;;;2.16;100.00;91540.22;2048858;28;20468;-88
2021/11/04 02:50:20;;;;;;;1.00;1.00;;;;;;;2.14;100.00;91543.25;2056770;28;20452;-90
2021/11/04 02:51:22;;;;;;;1.08;1.00;;;;;;;2.12;100.00;91540.28;2056938;28;20123;-88
2021/11/04 02:52:23;;;;;;;1.20;1.10;;;;;;;2.03;100.00;91552.47;2048741;28;20118;-90
2021/11/04 02:53:28;;;;;;;0.80;0.80;;;;;;;2.06;100.00;91551.66;2049126;28;20030;-89
2021/11/04 02:54:30;;;;;;;1.00;0.98;;;;;;;2.13;100.00;91549.66;2049975;28;20542;-88
2021/11/04 02:55:34;;;;;;;0.82;0.82;;;;;;;2.07;100.00;91553.91;2057253;28;20066;-89
2021/11/04 02:56:46;;;;;;;0.98;0.98;;;;;;;2.12;100.00;91545.56;2057541;28;20029;-89
2021/11/04 02:57:49;;;;;;;1.02;1.02;;;;;;;2.20;100.00;91554.09;2058190;28;20022;-88
2021/11/04 02:58:50;;;;;;;1.30;1.20;;;;;;;2.28;100.00;91555.44;2049317;28;20019;-88
2021/11/04 02:59:51;;;;;;;1.10;1.10;;;;;;;2.25;100.00;91557.00;2065003;28;20455;-89
2021/11/04 03:01:00;;;;;;;2.72;1.00;;;;;;;2.20;100.00;91564.63;2072781;28;20026;-89
2021/11/04 03:02:01;;;;;;;1.27;1.20;;;;;;;2.09;100.00;91562.16;2057976;28;20154;-89
2021/11/04 03:03:03;;;;;;;1.00;0.85;;;;;;;2.14;100.00;91561.69;2058352;28;20034;-90
2021/11/04 03:04:04;;;;;;;0.95;0.95;;;;;;;2.22;100.00;91562.34;2066756;28;20113;-87
2021/11/04 03:05:05;;;;;;;1.42;1.05;;;;;;;2.13;100.00;91557.56;2074580;28;20090;-89
2021/11/04 03:06:06;;;;;;;0.95;0.90;;;;;;;2.09;100.00;91567.44;2058563;28;20539;-87
2021/11/04 03:07:07;;;;;;;0.73;0.73;;;;;;;2.13;100.00;91565.47;2050359;28;20027;-90
2021/11/04 03:08:09;;;;;;;1.10;1.00;;;;;;;2.17;100.00;91562.78;2058523;28;20412;-90
2021/11/04 03:09:10;;;;;;;1.13;0.90;;;;;;;2.16;100.00;91569.22;2058565;28;20118;-88
2021/11/04 03:10:11;;;;;;;1.00;0.98;;;;;;;2.16;100.00;91563.94;2058400;28;20031;-88
2021/11/04 03:11:12;;;;;;;1.42;1.05;;;;;;;2.20;100.00;91568.03;2066470;28;20110;-89
2021/11/04 03:12:14;;;;;;;0.90;0.90;;;;;;;2.09;100.00;91564.03;2058260;28;20019;-89
2021/11/04 03:13:16;;;;;;;2.42;1.20;;;;;;;2.17;100.00;91570.69;2050921;28;20043;-89
2021/11/04 03:14:17;;;;;;;1.25;1.08;;;;;;;2.38;100.00;91565.09;2058412;28;20023;-87
2021/11/04 03:15:21;;;;;;;1.00;1.00;;;;;;;2.35;100.00;91565.88;2058216;28;20472;-89
2021/11/04 03:16:24;;;;;;;1.05;1.05;;;;;;;2.35;100.00;91571.16;2058798;28;20030;-90
2021/11/04 03:17:26;;;;;;;1.30;1.20;;;;;;;2.25;100.00;91570.19;2066201;28;20026;-90
2021/11/04 03:18:27;;;;;;;1.00;1.00;;;;;;;2.18;100.00;91572.19;2074458;28;20479;-88
2021/11/04 03:19:29;;;;;;;1.02;1.02;;;;;;;2.07;100.00;91571.63;2066447;28;20022;-88
2021/11/04 03:20:32;;;;;;;1.75;1.27;;;;;;;2.13;100.00;91567.38;2050401;28;20057;-89
2021/11/04 03:21:36;;;;;;;1.10;1.10;;;;;;;2.21;100.00;91564.22;2042975;28;20032;-89
2021/11/04 03:22:39;;;;;;;1.00;1.00;;;;;;;2.09;100.00;91567.44;2053172;28;20035;-88
2021/11/04 03:23:41;;;;;;;1.02;1.02;;;;;;;2.08;100.00;91565.19;2058867;28;20026;-89
2021/11/04 03:24:43;;;;;;;1.08;1.08;;;;;;;2.07;100.00;91566.34;2058444;28;20023;-87
2021/11/04 03:25:47;;;;;;;1.33;1.23;;;;;;;2.04;100.00;91567.13;2074203;28;20026;-89
2021/11/04 03:27:01;;;;;;;1.27;1.20;;;;;;;2.05;100.00;91568.63;2066339;28;20438;-88
2021/11/04 03:28:03;;;;;;;0.90;0.90;;;;;;;2.07;100.00;91558.44;2053684;28;20057;-89
2021/11/04 03:29:05;;;;;;;0.95;0.95;;;;;;;1.91;100.00;91564.31;2050970;28;20019;-88
2021/11/04 03:30:08;;;;;;;1.30;1.20;;;;;;;2.03;100.00;91570.94;2058351;28;20029;-89
2021/11/04 03:31:10;;;;;;;1.58;1.13;;;;;;;1.98;100.00;91564.22;2058651;28;20027;-89
2021/11/04 03:32:17;;;;;;;1.20;1.10;;;;;;;2.22;100.00;91557.06;2050809;28;20038;-89
2021/11/04 03:33:18;;;;;;;0.88;0.88;;;;;;;2.08;100.00;91555.41;2059713;28;20052;-88
2021/11/04 03:34:21;;;;;;;4.85;1.08;;;;;;;2.12;100.00;91555.34;2050481;28;20019;-90
2021/11/04 03:35:24;;;;;;;1.33;1.23;;;;;;;2.35;100.00;91563.25;2050707;28;20408;-88
2021/11/04 03:36:25;;;;;;;1.08;1.08;;;;;;;2.39;100.00;91565.84;2066561;28;20049;-89
2021/11/04 03:37:27;;;;;;;1.85;1.02;;;;;;;2.31;100.00;91559.94;2066515;28;20026;-89
2021/11/04 03:38:29;;;;;;;1.10;1.10;;;;;;;2.09;100.00;91559.53;2058510;28;20033;-90
2021/11/04 03:39:31;;;;;;;1.38;1.27;;;;;;;2.05;100.00;91556.19;2058583;28;20486;-90
2021/11/04 03:40:34;;;;;;;1.25;1.15;;;;;;;2.11;100.00;91561.75;2056347;28;20563;-89
2021/11/04 03:41:36;;;;;;;1.00;1.00;;;;;;;2.05;100.00;91558.81;2052637;28;20037;-88
2021/11/04 03:42:39;;;;;;;4.03;2.10;;;;;;;2.07;100.00;91563.72;2050667;28;20027;-88
2021/11/04 03:43:43;;;;;;;1.20;1.10;;;;;;;2.06;100.00;91564.84;2051339;28;20504;-88
2021/11/04 03:44:44;;;;;;;1.27;1.23;;;;;;;2.08;100.00;91555.41;2050366;28;20019;-89
2021/11/04 03:45:48;;;;;;;1.20;1.20;;;;;;;2.11;100.00;91562.50;2050233;28;20031;-89
2021/11/04 03:46:51;;;;;;;1.25;1.15;;;;;;;2.09;100.00;91566.69;2055136;28;20023;-89
2021/11/04 03:47:54;;;;;;;1.52;1.42;;;;;;;2.22;100.00;91570.97;2065942;28;20033;-89
2021/11/04 03:48:55;;;;;;;1.00;1.00;;;;;;;2.07;100.00;91577.63;2050630;28;20117;-91
2021/11/04 03:49:58;;;;;;;0.90;0.90;;;;;;;2.05;100.00;91572.00;2058168;28;20105;-89
2021/11/04 03:50:59;;;;;;;1.20;1.10;;;;;;;2.24;100.00;91570.59;2066384;28;20049;-87
2021/11/04 03:52:00;;;;;;;0.90;0.90;;;;;;;2.07;100.00;91569.72;2066110;28;20022;-88
2021/11/04 03:53:02;;;;;;;1.50;1.40;;;;;;;2.03;100.00;91573.56;2058120;28;20022;-89
2021/11/04 03:54:03;;;;;;;1.30;1.20;;;;;;;2.16;100.00;91569.22;2058135;28;20029;-88
2021/11/04 03:55:05;;;;;;;1.42;1.33;;;;;;;2.15;100.00;91571.13;2058156;28;20022;-89
2021/11/04 03:56:06;;;;;;;1.08;1.08;;;;;;;2.02;100.00;91578.09;2058376;28;20034;-89
2021/11/04 03:57:07;;;;;;;1.15;1.15;;;;;;;2.05;100.00;91579.91;2058272;28;20467;-88
2021/11/04 03:58:08;;;;;;;1.40;1.30;;;;;;;2.01;100.00;91579.94;2050001;28;20138;-88
2021/11/04 03:59:10;;;;;;;1.20;1.10;;;;;;;2.01;100.00;91577.31;2050080;28;20027;-88
2021/11/04 04:00:13;;;;;;;1.30;1.20;;;;;;;2.14;100.00;91589.94;2050003;28;20028;-90
2021/11/04 04:01:14;;;;;;;1.13;1.02;;;;;;;2.25;100.00;91590.53;2050893;28;20025;-90
2021/11/04 04:02:15;;;;;;;0.90;0.90;;;;;;;2.11;100.00;91586.22;2058054;28;20681;-90
2021/11/04 04:03:19;;;;;;;0.90;0.90;;;;;;;2.36;100.00;91585.81;2066148;28;20022;-89
2021/11/04 04:04:21;;;;;;;1.08;1.08;;;;;;;2.18;100.00;91594.00;2065885;28;20019;-88
2021/11/04 04:05:30;;;;;;;1.60;1.00;;;;;;;2.10;100.00;91591.88;2074353;28;20116;-90
2021/11/04 04:06:32;;;;;;;1.05;0.95;;;;;;;2.07;100.00;91588.19;2074057;28;20137;-88
2021/11/04 04:07:33;;;;;;;1.42;1.33;;;;;;;2.08;100.00;91594.94;2065985;28;20038;-89
2021/11/04 04:08:37;;;;;;;0.90;0.90;;;;;;;2.10;100.00;91590.00;2065979;28;20391;-88
2021/11/04 04:09:38;;;;;;;1.35;1.25;;;;;;;2.15;100.00;91591.44;2058272;28;20038;-89
2021/11/04 04:10:39;;;;;;;1.38;1.27;;;;;;;2.00;100.00;91589.00;2049964;28;20039;-89
2021/11/04 04:11:40;;;;;;;1.33;1.23;;;;;;;2.03;100.00;91592.00;2066050;28;20061;-89
2021/11/04 04:12:41;;;;;;;1.27;1.17;;;;;;;2.09;100.00;91593.03;2066094;28;20117;-88
2021/11/04 04:13:42;;;;;;;1.08;1.00;;;;;;;1.94;100.00;91593.25;2057641;28;20022;-90
2021/11/04 04:14:43;;;;;;;4.22;1.80;;;;;;;1.95;100.00;91592.09;2056533;28;20383;-91
2021/11/04 04:15:44;;;;;;;3.65;1.83;;;;;;;1.96;100.00;91596.22;2050026;28;20433;-89
2021/11/04 04:16:46;;;;;;;1.70;1.60;;;;;;;1.89;100.00;91595.56;2066293;28;20654;-87
2021/11/04 04:17:47;;;;;;;1.40;1.30;;;;;;;2.07;100.00;91597.97;2065748;28;20022;-89
2021/11/04 04:18:49;;;;;;;1.02;1.02;;;;;;;2.06;100.00;91596.47;2049793;28;20054;-90
2021/11/04 04:19:51;;;;;;;1.10;1.10;;;;;;;2.01;100.00;91595.03;2042892;28;20542;-90
2021/11/04 04:20:52;;;;;;;0.90;0.90;;;;;;;1.95;100.00;91594.00;2058115;28;20519;-89
2021/11/04 04:21:53;;;;;;;1.27;1.17;;;;;;;1.85;100.00;91597.53;2065876;28;20026;-89
2021/11/04 04:22:54;;;;;;;1.00;1.00;;;;;;;1.92;100.00;91597.41;2065789;28;20026;-88
2021/11/04 04:23:55;;;;;;;0.90;0.90;;;;;;;1.87;100.00;91592.59;2066019;28;20431;-89
2021/11/04 04:24:56;;;;;;;1.10;1.10;;;;;;;1.82;100.00;91599.06;2066820;28;20026;-88
2021/11/04 04:25:57;;;;;;;1.38;1.27;;;;;;;1.84;100.00;91606.56;2066119;28;20022;-87
2021/11/04 04:27:00;;;;;;;1.48;1.38;;;;;;;1.85;100.00;91600.91;2065928;28;20082;-89
2021/11/04 04:28:01;;;;;;;1.13;1.13;;;;;;;1.90;100.00;91595.19;2057908;28;20033;-88
2021/11/04 04:29:02;;;;;;;1.05;0.98;;;;;;;1.86;100.00;91605.03;2049754;28;20058;-91
2021/11/04 04:30:04;;;;;;;1.20;1.20;;;;;;;1.89;100.00;91601.59;2050031;28;20118;-89
2021/11/04 04:31:05;;;;;;;0.85;0.85;;;;;;;1.82;100.00;91601.69;2049871;28;20058;-89
2021/11/04 04:32:06;;;;;;;1.20;1.20;;;;;;;1.91;100.00;91606.47;2057817;28;20019;-88
2021/11/04 04:33:07;;;;;;;1.00;1.00;;;;;;;1.98;100.00;91606.38;2057700;28;20023;-89
2021/11/04 04:34:08;;;;;;;1.00;1.00;;;;;;;1.85;100.00;91610.69;2058036;28;20023;-89
2021/11/04 04:35:09;;;;;;;1.48;1.13;;;;;;;1.80;100.00;91608.50;2057804;28;20037;-88
2021/11/04 04:36:10;;;;;;;1.10;1.08;;;;;;;1.82;100.00;91608.84;2049851;28;20134;-88
2021/11/04 04:37:11;;;;;;;1.20;1.10;;;;;;;1.93;100.00;91612.06;2049754;28;20469;-89
2021/11/04 04:38:12;;;;;;;1.70;1.60;;;;;;;1.92;100.00;91621.13;2049726;28;20062;-87
2021/11/04 04:39:14;;;;;;;3.30;3.10;;;;;;;1.87;100.00;91617.06;2057739;28;20023;-89
2021/11/04 04:40:15;;;;;;;2.47;2.38;;;;;;;1.95;100.00;91617.69;2065705;28;20026;-90
2021/11/04 04:41:16;;;;;;;1.48;1.38;;;;;;;1.90;100.00;91626.81;2065898;28;20018;-89
2021/11/04 04:42:17;;;;;;;3.00;1.15;;;;;;;1.91;100.00;91620.38;2065690;28;20082;-89
2021/11/04 04:43:18;;;;;;;0.85;0.85;;;;;;;1.93;100.00;91623.38;2065635;28;20022;-90
2021/11/04 04:44:19;;;;;;;0.90;0.90;;;;;;;2.01;100.00;91630.03;2065679;28;20030;-88
2021/11/04 04:45:20;;;;;;;2.10;1.00;;;;;;;1.95;100.00;91629.00;2065774;28;20033;-87
2021/11/04 04:46:21;;;;;;;1.05;0.80;;;;;;;1.88;100.00;91626.44;2053973;28;20027;-88
2021/11/04 04:47:23;;;;;;;1.00;1.00;;;;;;;2.00;100.00;91627.78;2057714;28;20432;-89
2021/11/04 04:48:24;;;;;;;0.90;0.90;;;;;;;2.03;100.00;91626.25;2057824;28;20026;-90
2021/11/04 04:49:25;;;;;;;0.80;0.80;;;;;;;2.11;100.00;91630.25;2049975;28;20023;-90
2021/11/04 04:50:26;;;;;;;2.35;0.90;;;;;;;2.07;100.00;91632.22;2049709;28;20639;-89
2021/11/04 04:51:27;;;;;;;0.70;0.70;;;;;;;1.98;100.00;91630.84;2054924;28;20027;-88
2021/11/04 04:52:29;;;;;;;0.90;0.90;;;;;;;1.99;100.00;91626.31;2060283;28;20762;-89
2021/11/04 04:53:30;;;;;;;1.00;0.90;;;;;;;2.03;100.00;91642.81;2065714;28;20030;-88
2021/11/04 04:54:31;;;;;;;0.80;0.80;;;;;;;2.15;100.00;91630.97;2065716;28;20113;-88